createdAt,value
2018-09-04T00:00:35.248Z,0.00
2018-09-04T00:01:35.274Z,0.00
2018-09-04T00:02:35.299Z,0.00
2018-09-04T00:03:35.313Z,0.00
2018-09-04T00:04:35.339Z,0.00
2018-09-04T00:05:35.364Z,0.00
2018-09-04T00:06:35.378Z,0.00
2018-09-04T00:07:35.404Z,0.00
2018-09-04T00:08:35.430Z,0.00
2018-09-04T00:09:35.446Z,0.00
2018-09-04T00:10:35.468Z,0.00
2018-09-04T00:11:35.494Z,0.00
2018-09-04T00:12:35.521Z,0.00
2018-09-04T00:13:35.535Z,0.00
2018-09-04T00:14:35.561Z,0.00
2018-09-04T00:15:35.588Z,0.00
2018-09-04T00:16:35.601Z,0.00
2018-09-04T00:17:35.626Z,0.00
2018-09-04T00:18:35.651Z,0.00
2018-09-04T00:19:35.667Z,0.00
2018-09-04T00:20:35.691Z,0.00
2018-09-04T00:21:35.719Z,0.00
2018-09-04T00:22:35.731Z,0.00
2018-09-04T00:23:35.756Z,0.00
2018-09-04T00:24:35.783Z,0.00
2018-09-04T00:25:35.796Z,0.00
2018-09-04T00:26:35.822Z,0.00
2018-09-04T00:27:35.849Z,0.00
2018-09-04T00:28:35.861Z,0.00
2018-09-04T00:29:35.888Z,0.00
2018-09-04T00:30:35.913Z,0.00
2018-09-04T00:31:35.942Z,0.00
2018-09-04T00:32:35.952Z,0.00
2018-09-04T00:33:35.979Z,0.00
2018-09-04T00:34:36.005Z,0.00
2018-09-04T00:35:36.017Z,0.00
2018-09-04T00:36:36.043Z,0.00
2018-09-04T00:37:36.070Z,0.00
2018-09-04T00:38:36.084Z,0.00
2018-09-04T00:39:36.113Z,0.00
2018-09-04T00:40:36.136Z,0.00
2018-09-04T00:41:36.148Z,0.00
2018-09-04T00:42:36.175Z,0.00
2018-09-04T00:43:36.201Z,0.00
2018-09-04T00:44:36.217Z,0.00
2018-09-04T00:45:36.240Z,0.00
2018-09-04T00:46:36.436Z,0.00
2018-09-04T00:47:36.281Z,0.00
2018-09-04T00:48:36.306Z,0.00
2018-09-04T00:49:36.344Z,0.00
2018-09-04T00:50:36.345Z,0.00
2018-09-04T00:51:36.372Z,0.00
2018-09-04T00:52:36.396Z,0.00
2018-09-04T00:53:36.409Z,0.00
2018-09-04T00:54:36.436Z,0.00
2018-09-04T00:55:36.461Z,0.00
2018-09-04T00:56:36.475Z,0.00
2018-09-04T00:57:36.502Z,0.00
2018-09-04T00:58:36.527Z,0.00
2018-09-04T00:59:36.553Z,0.00
2018-09-04T01:00:36.566Z,0.00
2018-09-04T01:01:36.592Z,0.00
2018-09-04T01:02:36.606Z,0.00
2018-09-04T01:03:36.633Z,0.00
2018-09-04T01:04:36.659Z,0.00
2018-09-04T01:05:36.684Z,0.00
2018-09-04T01:06:36.698Z,0.00
2018-09-04T01:07:36.723Z,0.00
2018-09-04T01:08:36.738Z,0.00
2018-09-04T01:09:36.764Z,0.00
2018-09-04T01:10:36.789Z,0.00
2018-09-04T01:11:36.802Z,0.00
2018-09-04T01:12:36.841Z,0.00
2018-09-04T01:13:36.854Z,0.00
2018-09-04T01:14:36.870Z,0.00
2018-09-04T01:15:37.195Z,0.00
2018-09-04T01:16:36.908Z,0.00
2018-09-04T01:17:36.934Z,0.00
2018-09-04T01:18:36.966Z,0.00
2018-09-04T01:19:36.988Z,0.00
2018-09-04T01:20:36.999Z,0.00
2018-09-04T01:21:37.024Z,0.00
2018-09-04T01:22:37.038Z,0.00
2018-09-04T01:23:37.068Z,0.00
2018-09-04T01:24:37.092Z,0.00
2018-09-04T01:25:37.104Z,0.00
2018-09-04T01:26:37.129Z,0.00
2018-09-04T01:27:37.158Z,0.00
2018-09-04T01:28:37.172Z,0.00
2018-09-04T01:29:37.194Z,0.00
2018-09-04T01:30:37.220Z,0.00
2018-09-04T01:31:37.234Z,0.00
2018-09-04T01:32:37.263Z,0.00
2018-09-04T01:33:37.286Z,0.00
2018-09-04T01:34:37.301Z,0.00
2018-09-04T01:35:37.324Z,0.00
2018-09-04T01:36:37.339Z,0.00
2018-09-04T01:37:37.365Z,0.00
2018-09-04T01:38:37.390Z,0.00
2018-09-04T01:39:37.417Z,0.00
2018-09-04T01:40:37.429Z,0.00
2018-09-04T01:41:37.456Z,0.00
2018-09-04T01:42:37.469Z,0.00
2018-09-04T01:43:37.495Z,0.00
2018-09-04T01:44:37.524Z,0.00
2018-09-04T01:45:37.538Z,0.00
2018-09-04T01:46:37.560Z,0.00
2018-09-04T01:47:37.587Z,0.00
2018-09-04T01:48:37.601Z,0.00
2018-09-04T01:49:37.625Z,0.00
2018-09-04T01:50:37.641Z,0.00
2018-09-04T01:51:37.666Z,0.00
2018-09-04T01:52:37.690Z,0.00
2018-09-04T01:53:37.705Z,0.00
2018-09-04T01:54:37.734Z,0.00
2018-09-04T01:55:37.758Z,0.00
2018-09-04T01:56:37.769Z,0.00
2018-09-04T01:57:37.796Z,0.00
2018-09-04T01:58:37.824Z,0.00
2018-09-04T01:59:37.836Z,0.00
2018-09-04T02:00:37.861Z,0.00
2018-09-04T02:01:37.876Z,0.00
2018-09-04T02:02:37.901Z,0.00
2018-09-04T02:03:37.927Z,0.00
2018-09-04T02:04:37.940Z,0.00
2018-09-04T02:05:37.966Z,0.00
2018-09-04T02:06:37.992Z,0.00
2018-09-04T02:07:38.005Z,0.00
2018-09-04T02:08:38.031Z,0.00
2018-09-04T02:09:38.046Z,0.00
2018-09-04T02:10:38.072Z,0.00
2018-09-04T02:11:38.098Z,0.00
2018-09-04T02:12:38.110Z,0.00
2018-09-04T02:13:38.137Z,0.00
2018-09-04T02:14:38.162Z,0.00
2018-09-04T02:15:38.176Z,0.00
2018-09-04T02:16:38.202Z,0.00
2018-09-04T02:17:38.216Z,0.00
2018-09-04T02:18:38.242Z,0.00
2018-09-04T02:19:38.279Z,0.00
2018-09-04T02:20:38.281Z,0.00
2018-09-04T02:21:38.310Z,0.00
2018-09-04T02:22:38.333Z,0.00
2018-09-04T02:23:38.346Z,0.00
2018-09-04T02:24:38.372Z,0.00
2018-09-04T02:25:38.385Z,0.00
2018-09-04T02:26:38.411Z,0.00
2018-09-04T02:27:38.438Z,0.00
2018-09-04T02:28:38.457Z,0.00
2018-09-04T02:29:38.477Z,0.00
2018-09-04T02:30:38.491Z,0.00
2018-09-04T02:31:38.517Z,0.00
2018-09-04T02:32:38.543Z,0.00
2018-09-04T02:33:38.558Z,0.00
2018-09-04T02:34:38.583Z,0.00
2018-09-04T02:35:38.607Z,0.00
2018-09-04T02:36:38.625Z,0.00
2018-09-04T02:37:38.648Z,0.00
2018-09-04T02:38:38.661Z,0.00
2018-09-04T02:39:38.685Z,0.00
2018-09-04T02:40:38.712Z,0.00
2018-09-04T02:41:38.726Z,0.00
2018-09-04T02:42:38.752Z,0.00
2018-09-04T02:43:38.768Z,0.00
2018-09-04T02:44:38.804Z,0.00
2018-09-04T02:45:38.816Z,0.00
2018-09-04T02:46:38.831Z,0.00
2018-09-04T02:47:38.857Z,0.00
2018-09-04T02:48:38.869Z,0.00
2018-09-04T02:49:38.895Z,0.00
2018-09-04T02:50:38.921Z,0.00
2018-09-04T02:51:38.936Z,0.00
2018-09-04T02:52:38.962Z,0.00
2018-09-04T02:53:38.975Z,0.00
2018-09-04T02:54:39.000Z,0.00
2018-09-04T02:55:39.026Z,0.00
2018-09-04T02:56:39.041Z,0.00
2018-09-04T02:57:39.069Z,0.00
2018-09-04T02:58:39.092Z,0.00
2018-09-04T02:59:39.105Z,0.00
2018-09-04T03:00:39.132Z,0.00
2018-09-04T03:01:39.145Z,0.00
2018-09-04T03:02:39.171Z,0.00
2018-09-04T03:03:39.197Z,0.00
2018-09-04T03:04:39.210Z,0.00
2018-09-04T03:05:39.249Z,0.00
2018-09-04T03:06:39.250Z,0.00
2018-09-04T03:07:39.280Z,0.00
2018-09-04T03:08:39.289Z,0.00
2018-09-04T03:09:39.314Z,0.00
2018-09-04T03:10:39.341Z,0.00
2018-09-04T03:11:39.355Z,0.00
2018-09-04T03:12:39.381Z,0.00
2018-09-04T03:13:39.570Z,0.00
2018-09-04T03:14:39.419Z,0.00
2018-09-04T03:15:39.445Z,0.00
2018-09-04T03:16:39.459Z,0.00
2018-09-04T03:17:39.486Z,0.00
2018-09-04T03:18:39.512Z,0.00
2018-09-04T03:19:39.537Z,0.00
2018-09-04T03:20:39.550Z,0.00
2018-09-04T03:21:39.565Z,0.00
2018-09-04T03:22:39.590Z,0.00
2018-09-04T03:23:39.616Z,0.00
2018-09-04T03:24:39.630Z,0.00
2018-09-04T03:25:39.654Z,0.00
2018-09-04T03:26:39.668Z,0.00
2018-09-04T03:27:39.695Z,0.00
2018-09-04T03:28:39.728Z,0.00
2018-09-04T03:29:39.733Z,0.00
2018-09-04T03:30:39.759Z,0.00
2018-09-04T03:31:39.778Z,0.00
2018-09-04T03:32:39.800Z,0.00
2018-09-04T03:33:39.825Z,0.00
2018-09-04T03:34:39.841Z,0.00
2018-09-04T03:35:39.870Z,0.00
2018-09-04T03:36:39.921Z,0.00
2018-09-04T03:37:39.904Z,0.00
2018-09-04T03:38:39.930Z,0.00
2018-09-04T03:39:39.942Z,0.00
2018-09-04T03:40:39.972Z,0.00
2018-09-04T03:41:39.983Z,0.00
2018-09-04T03:42:40.009Z,0.00
2018-09-04T03:43:40.035Z,0.00
2018-09-04T03:44:40.048Z,0.00
2018-09-04T03:45:40.075Z,0.00
2018-09-04T03:46:40.100Z,0.00
2018-09-04T03:47:40.114Z,4.00
2018-09-04T03:48:40.132Z,4.00
2018-09-04T03:49:40.154Z,4.00
2018-09-04T03:50:40.179Z,0.00
2018-09-04T03:51:40.193Z,4.00
2018-09-04T03:52:40.220Z,4.00
2018-09-04T03:53:40.253Z,4.00
2018-09-04T03:54:40.257Z,8.00
2018-09-04T03:55:40.283Z,8.00
2018-09-04T03:56:40.308Z,8.00
2018-09-04T03:57:40.323Z,12.00
2018-09-04T03:58:40.390Z,12.00
2018-09-04T03:59:40.363Z,12.00
2018-09-04T04:00:40.392Z,16.00
2018-09-04T04:01:40.402Z,16.00
2018-09-04T04:02:40.430Z,24.00
2018-09-04T04:03:40.454Z,24.00
2018-09-04T04:04:40.466Z,28.00
2018-09-04T04:05:40.493Z,36.00
2018-09-04T04:06:40.506Z,40.00
2018-09-04T04:07:40.532Z,48.00
2018-09-04T04:08:40.546Z,56.00
2018-09-04T04:09:40.572Z,64.00
2018-09-04T04:10:40.598Z,72.00
2018-09-04T04:11:40.612Z,80.00
2018-09-04T04:12:40.638Z,92.00
2018-09-04T04:13:40.652Z,104.00
2018-09-04T04:14:40.678Z,120.00
2018-09-04T04:15:40.702Z,136.00
2018-09-04T04:16:40.716Z,148.00
2018-09-04T04:17:40.743Z,168.00
2018-09-04T04:18:40.757Z,188.00
2018-09-04T04:19:40.782Z,212.00
2018-09-04T04:20:40.807Z,232.00
2018-09-04T04:21:40.821Z,256.00
2018-09-04T04:22:40.849Z,276.00
2018-09-04T04:23:40.874Z,300.00
2018-09-04T04:24:40.890Z,332.00
2018-09-04T04:25:40.924Z,356.00
2018-09-04T04:26:40.926Z,384.00
2018-09-04T04:27:40.953Z,412.00
2018-09-04T04:28:40.964Z,444.00
2018-09-04T04:29:40.990Z,476.00
2018-09-04T04:30:41.018Z,508.00
2018-09-04T04:31:41.029Z,552.00
2018-09-04T04:32:41.061Z,596.00
2018-09-04T04:33:41.070Z,644.00
2018-09-04T04:34:41.096Z,692.00
2018-09-04T04:35:41.120Z,744.00
2018-09-04T04:36:41.138Z,808.00
2018-09-04T04:37:41.164Z,872.00
2018-09-04T04:38:41.174Z,936.00
2018-09-04T04:39:41.213Z,988.00
2018-09-04T04:40:41.225Z,1040.00
2018-09-04T04:41:41.240Z,1080.00
2018-09-04T04:42:41.267Z,1120.00
2018-09-04T04:43:41.278Z,1164.00
2018-09-04T04:44:41.305Z,1220.00
2018-09-04T04:45:41.331Z,1280.00
2018-09-04T04:46:41.348Z,1340.00
2018-09-04T04:47:41.376Z,1408.00
2018-09-04T04:48:41.385Z,1484.00
2018-09-04T04:49:41.409Z,1556.00
2018-09-04T04:50:41.436Z,1624.00
2018-09-04T04:51:41.449Z,1684.00
2018-09-04T04:52:41.475Z,1740.00
2018-09-04T04:53:41.502Z,1780.00
2018-09-04T04:54:41.514Z,1812.00
2018-09-04T04:55:41.540Z,1840.00
2018-09-04T04:56:41.555Z,1868.00
2018-09-04T04:57:41.585Z,1896.00
2018-09-04T04:58:41.593Z,1924.00
2018-09-04T04:59:41.618Z,1956.00
2018-09-04T05:00:41.634Z,1984.00
2018-09-04T05:01:41.659Z,2008.00
2018-09-04T05:02:41.685Z,2080.00
2018-09-04T05:03:41.700Z,2180.00
2018-09-04T05:04:41.724Z,2268.00
2018-09-04T05:05:41.737Z,2352.00
2018-09-04T05:06:41.767Z,2416.00
2018-09-04T05:07:41.794Z,2476.00
2018-09-04T05:08:41.806Z,2528.00
2018-09-04T05:09:41.828Z,2588.00
2018-09-04T05:10:41.843Z,2656.00
2018-09-04T05:11:42.111Z,2720.00
2018-09-04T05:12:41.895Z,2768.00
2018-09-04T05:13:41.907Z,2816.00
2018-09-04T05:14:41.946Z,2840.00
2018-09-04T05:15:41.959Z,2856.00
2018-09-04T05:16:41.974Z,2876.00
2018-09-04T05:17:42.000Z,2900.00
2018-09-04T05:18:42.013Z,2936.00
2018-09-04T05:19:42.038Z,2964.00
2018-09-04T05:20:42.052Z,2992.00
2018-09-04T05:21:42.078Z,3024.00
2018-09-04T05:22:42.173Z,3072.00
2018-09-04T05:23:42.116Z,3124.00
2018-09-04T05:24:42.142Z,3196.00
2018-09-04T05:25:42.168Z,3276.00
2018-09-04T05:26:42.183Z,3364.00
2018-09-04T05:27:42.208Z,3464.00
2018-09-04T05:28:42.234Z,3568.00
2018-09-04T05:29:42.248Z,3672.00
2018-09-04T05:30:42.274Z,3764.00
2018-09-04T05:31:42.287Z,3852.00
2018-09-04T05:32:42.314Z,3924.00
2018-09-04T05:33:42.327Z,3988.00
2018-09-04T05:34:42.352Z,4040.00
2018-09-04T05:35:42.377Z,4092.00
2018-09-04T05:36:42.444Z,4136.00
2018-09-04T05:37:42.420Z,4176.00
2018-09-04T05:38:42.431Z,4208.00
2018-09-04T05:39:42.457Z,4248.00
2018-09-04T05:40:42.484Z,4292.00
2018-09-04T05:41:42.497Z,4332.00
2018-09-04T05:42:42.523Z,4380.00
2018-09-04T05:43:42.536Z,4424.00
2018-09-04T05:44:42.563Z,4476.00
2018-09-04T05:45:42.588Z,4540.00
2018-09-04T05:46:42.601Z,4600.00
2018-09-04T05:47:42.627Z,4672.00
2018-09-04T05:48:42.642Z,4744.00
2018-09-04T05:49:42.680Z,4816.00
2018-09-04T05:50:42.702Z,4884.00
2018-09-04T05:51:42.717Z,4996.00
2018-09-04T05:52:42.732Z,5096.00
2018-09-04T05:53:42.758Z,5200.00
2018-09-04T05:54:42.775Z,5268.00
2018-09-04T05:55:42.796Z,5300.00
2018-09-04T05:56:42.812Z,5320.00
2018-09-04T05:57:42.842Z,5340.00
2018-09-04T05:58:42.863Z,5352.00
2018-09-04T05:59:42.875Z,5396.00
2018-09-04T06:00:42.902Z,5436.00
2018-09-04T06:01:42.928Z,5488.00
2018-09-04T06:02:42.942Z,5540.00
2018-09-04T06:03:42.967Z,5616.00
2018-09-04T06:04:42.981Z,5688.00
2018-09-04T06:05:43.006Z,5736.00
2018-09-04T06:06:43.033Z,5772.00
2018-09-04T06:07:43.046Z,5796.00
2018-09-04T06:08:43.074Z,5824.00
2018-09-04T06:09:43.099Z,5848.00
2018-09-04T06:10:43.112Z,5884.00
2018-09-04T06:11:43.138Z,5932.00
2018-09-04T06:12:43.163Z,5988.00
2018-09-04T06:13:43.205Z,6012.00
2018-09-04T06:14:43.211Z,6012.00
2018-09-04T06:15:43.217Z,5984.00
2018-09-04T06:16:43.244Z,5976.00
2018-09-04T06:17:43.270Z,5980.00
2018-09-04T06:18:43.282Z,5984.00
2018-09-04T06:19:43.309Z,6020.00
2018-09-04T06:20:43.334Z,6080.00
2018-09-04T06:21:43.347Z,6164.00
2018-09-04T06:22:43.373Z,6220.00
2018-09-04T06:23:43.402Z,6272.00
2018-09-04T06:24:43.412Z,6312.00
2018-09-04T06:25:43.439Z,6328.00
2018-09-04T06:26:43.465Z,6340.00
2018-09-04T06:27:43.479Z,6368.00
2018-09-04T06:28:43.504Z,6476.00
2018-09-04T06:29:43.530Z,6728.00
2018-09-04T06:30:43.543Z,6836.00
2018-09-04T06:31:43.570Z,6784.00
2018-09-04T06:32:43.584Z,6836.00
2018-09-04T06:33:43.622Z,6864.00
2018-09-04T06:34:43.634Z,6912.00
2018-09-04T06:35:43.660Z,6988.00
2018-09-04T06:36:43.747Z,7160.00
2018-09-04T06:37:43.703Z,7304.00
2018-09-04T06:38:43.714Z,7568.00
2018-09-04T06:39:43.740Z,7416.00
2018-09-04T06:40:43.779Z,7748.00
2018-09-04T06:41:43.779Z,8316.00
2018-09-04T06:42:43.807Z,9692.00
2018-09-04T06:43:43.832Z,11232.00
2018-09-04T06:44:43.844Z,9072.00
2018-09-04T06:45:43.870Z,7808.00
2018-09-04T06:46:43.897Z,9344.00
2018-09-04T06:47:43.922Z,12688.00
2018-09-04T06:48:43.936Z,13572.00
2018-09-04T06:49:43.974Z,16336.00
2018-09-04T06:50:43.988Z,18592.00
2018-09-04T06:51:44.000Z,18912.00
2018-09-04T06:52:44.028Z,21856.00
2018-09-04T06:53:44.053Z,24448.00
2018-09-04T06:54:44.135Z,25600.00
2018-09-04T06:55:44.096Z,26624.00
2018-09-04T06:56:44.122Z,24384.00
2018-09-04T06:57:44.154Z,19840.00
2018-09-04T06:58:44.159Z,15264.00
2018-09-04T06:59:44.184Z,12608.00
2018-09-04T07:00:44.212Z,14020.00
2018-09-04T07:01:44.224Z,15388.00
2018-09-04T07:02:44.250Z,17824.00
2018-09-04T07:03:44.276Z,16364.00
2018-09-04T07:04:44.301Z,12060.00
2018-09-04T07:05:44.315Z,10084.00
2018-09-04T07:06:44.340Z,9528.00
2018-09-04T07:07:44.366Z,8436.00
2018-09-04T07:08:44.392Z,8092.00
2018-09-04T07:09:44.418Z,8228.00
2018-09-04T07:10:44.431Z,8428.00
2018-09-04T07:11:44.458Z,8524.00
2018-09-04T07:12:44.485Z,9864.00
2018-09-04T07:13:44.510Z,10088.00
2018-09-04T07:14:44.524Z,9388.00
2018-09-04T07:15:44.549Z,9984.00
2018-09-04T07:16:44.587Z,10664.00
2018-09-04T07:17:44.600Z,12664.00
2018-09-04T07:18:44.615Z,13376.00
2018-09-04T07:19:44.667Z,15880.00
2018-09-04T07:20:44.671Z,16016.00
2018-09-04T07:21:44.692Z,13828.00
2018-09-04T07:22:44.719Z,18528.00
2018-09-04T07:23:44.792Z,20736.00
2018-09-04T07:24:44.760Z,20896.00
2018-09-04T07:25:44.783Z,19584.00
2018-09-04T07:26:44.809Z,13124.00
2018-09-04T07:27:44.824Z,17984.00
2018-09-04T07:28:44.849Z,23008.00
2018-09-04T07:29:44.875Z,31392.00
2018-09-04T07:30:44.900Z,39392.00
2018-09-04T07:31:44.928Z,39936.00
2018-09-04T07:32:44.939Z,39360.00
2018-09-04T07:33:44.965Z,37728.00
2018-09-04T07:34:44.992Z,37728.00
2018-09-04T07:35:45.018Z,39072.00
2018-09-04T07:36:45.045Z,38752.00
2018-09-04T07:37:45.061Z,39008.00
2018-09-04T07:38:45.084Z,40896.00
2018-09-04T07:39:45.109Z,41184.00
2018-09-04T07:40:45.149Z,41504.00
2018-09-04T07:41:45.165Z,42656.00
2018-09-04T07:42:45.188Z,42816.00
2018-09-04T07:43:45.214Z,44000.00
2018-09-04T07:44:45.239Z,45152.00
2018-09-04T07:45:45.267Z,45920.00
2018-09-04T07:46:45.291Z,45248.00
2018-09-04T07:47:45.317Z,44512.00
2018-09-04T07:48:45.330Z,44544.00
2018-09-04T07:49:45.372Z,43392.00
2018-09-04T07:50:45.384Z,38144.00
2018-09-04T07:51:45.421Z,29056.00
2018-09-04T07:52:45.434Z,16140.00
2018-09-04T07:53:45.504Z,9568.00
2018-09-04T07:54:45.492Z,8972.00
2018-09-04T07:55:45.513Z,8652.00
2018-09-04T07:56:45.538Z,8440.00
2018-09-04T07:57:45.565Z,8308.00
2018-09-04T07:58:45.590Z,8204.00
2018-09-04T07:59:45.616Z,8124.00
2018-09-04T08:00:45.663Z,8052.00
2018-09-04T08:01:45.669Z,7996.00
2018-09-04T08:02:45.695Z,7956.00
2018-09-04T08:03:45.719Z,7948.00
2018-09-04T08:04:45.746Z,7972.00
2018-09-04T08:05:45.771Z,8008.00
2018-09-04T08:06:45.798Z,8084.00
2018-09-04T08:07:45.823Z,8164.00
2018-09-04T08:08:45.849Z,8240.00
2018-09-04T08:09:45.864Z,8316.00
2018-09-04T08:10:45.888Z,8388.00
2018-09-04T08:11:45.915Z,8436.00
2018-09-04T08:12:45.942Z,8480.00
2018-09-04T08:13:45.968Z,8520.00
2018-09-04T08:14:45.994Z,8552.00
2018-09-04T08:15:46.020Z,8556.00
2018-09-04T08:16:46.048Z,8580.00
2018-09-04T08:17:46.063Z,8600.00
2018-09-04T08:18:46.097Z,8612.00
2018-09-04T08:19:46.112Z,8624.00
2018-09-04T08:20:46.212Z,8632.00
2018-09-04T08:21:46.163Z,8624.00
2018-09-04T08:22:46.188Z,8612.00
2018-09-04T08:23:46.214Z,8612.00
2018-09-04T08:24:46.230Z,8632.00
2018-09-04T08:25:46.253Z,8652.00
2018-09-04T08:26:46.280Z,8660.00
2018-09-04T08:27:46.305Z,8684.00
2018-09-04T08:28:46.333Z,8692.00
2018-09-04T08:29:46.357Z,8680.00
2018-09-04T08:30:46.384Z,8656.00
2018-09-04T08:31:46.397Z,8652.00
2018-09-04T08:32:46.425Z,8656.00
2018-09-04T08:33:46.448Z,8636.00
2018-09-04T08:34:46.487Z,8632.00
2018-09-04T08:35:46.503Z,8624.00
2018-09-04T08:36:46.527Z,8600.00
2018-09-04T08:37:46.541Z,8592.00
2018-09-04T08:38:46.566Z,8620.00
2018-09-04T08:39:46.592Z,8644.00
2018-09-04T08:40:46.619Z,8648.00
2018-09-04T08:41:46.645Z,8648.00
2018-09-04T08:42:46.670Z,8656.00
2018-09-04T08:43:46.699Z,8656.00
2018-09-04T08:44:46.709Z,8628.00
2018-09-04T08:45:46.734Z,8620.00
2018-09-04T08:46:46.761Z,8632.00
2018-09-04T08:47:46.963Z,8624.00
2018-09-04T08:48:46.812Z,8620.00
2018-09-04T08:49:46.838Z,8608.00
2018-09-04T08:50:46.864Z,8592.00
2018-09-04T08:51:46.890Z,8580.00
2018-09-04T08:52:46.905Z,8560.00
2018-09-04T08:53:46.930Z,8536.00
2018-09-04T08:54:46.957Z,8548.00
2018-09-04T08:55:46.982Z,8544.00
2018-09-04T08:56:47.009Z,8552.00
2018-09-04T08:57:47.035Z,8536.00
2018-09-04T08:58:47.155Z,8528.00
2018-09-04T08:59:47.074Z,8512.00
2018-09-04T09:00:47.099Z,8492.00
2018-09-04T09:01:47.126Z,8484.00
2018-09-04T09:02:47.165Z,8500.00
2018-09-04T09:03:47.239Z,8512.00
2018-09-04T09:04:47.207Z,8524.00
2018-09-04T09:05:47.231Z,8544.00
2018-09-04T09:06:47.254Z,8568.00
2018-09-04T09:07:47.269Z,8580.00
2018-09-04T09:08:47.296Z,8576.00
2018-09-04T09:09:47.320Z,8552.00
2018-09-04T09:10:47.346Z,8552.00
2018-09-04T09:11:47.374Z,8548.00
2018-09-04T09:12:47.398Z,8540.00
2018-09-04T09:13:47.424Z,8536.00
2018-09-04T09:14:47.440Z,8524.00
2018-09-04T09:15:47.463Z,8520.00
2018-09-04T09:16:47.499Z,8504.00
2018-09-04T09:17:47.516Z,8496.00
2018-09-04T09:18:47.541Z,8496.00
2018-09-04T09:19:47.568Z,8496.00
2018-09-04T09:20:47.594Z,8512.00
2018-09-04T09:21:47.620Z,8496.00
2018-09-04T09:22:47.708Z,8492.00
2018-09-04T09:23:47.659Z,8516.00
2018-09-04T09:24:47.686Z,8504.00
2018-09-04T09:25:47.711Z,8500.00
2018-09-04T09:26:47.739Z,8484.00
2018-09-04T09:27:47.762Z,8468.00
2018-09-04T09:28:47.789Z,8464.00
2018-09-04T09:29:47.815Z,8460.00
2018-09-04T09:30:47.841Z,8484.00
2018-09-04T09:31:47.868Z,8500.00
2018-09-04T09:32:47.880Z,8504.00
2018-09-04T09:33:47.905Z,8512.00
2018-09-04T09:34:47.933Z,8524.00
2018-09-04T09:35:47.957Z,8536.00
2018-09-04T09:36:48.108Z,8568.00
2018-09-04T09:37:48.010Z,8596.00
2018-09-04T09:38:48.036Z,8624.00
2018-09-04T09:39:48.074Z,8640.00
2018-09-04T09:40:48.088Z,8652.00
2018-09-04T09:41:48.114Z,8676.00
2018-09-04T09:42:48.139Z,8696.00
2018-09-04T09:43:48.165Z,8716.00
2018-09-04T09:44:48.181Z,8708.00
2018-09-04T09:45:48.206Z,8696.00
2018-09-04T09:46:48.230Z,8692.00
2018-09-04T09:47:48.262Z,8700.00
2018-09-04T09:48:48.285Z,8684.00
2018-09-04T09:49:48.310Z,8696.00
2018-09-04T09:50:48.396Z,8716.00
2018-09-04T09:51:48.362Z,8724.00
2018-09-04T09:52:48.412Z,8740.00
2018-09-04T09:53:48.414Z,8768.00
2018-09-04T09:54:48.473Z,8788.00
2018-09-04T09:55:48.465Z,8820.00
2018-09-04T09:56:48.535Z,8844.00
2018-09-04T09:57:48.517Z,8864.00
2018-09-04T09:58:48.544Z,8900.00
2018-09-04T09:59:48.588Z,8936.00
2018-09-04T10:00:48.581Z,8972.00
2018-09-04T10:01:48.608Z,9004.00
2018-09-04T10:02:48.634Z,9012.00
2018-09-04T10:03:48.690Z,9012.00
2018-09-04T10:04:48.686Z,9024.00
2018-09-04T10:05:48.711Z,9032.00
2018-09-04T10:06:48.739Z,9020.00
2018-09-04T10:07:48.876Z,9024.00
2018-09-04T10:08:48.789Z,9060.00
2018-09-04T10:09:48.826Z,9108.00
2018-09-04T10:10:48.845Z,9164.00
2018-09-04T10:11:48.867Z,9212.00
2018-09-04T10:12:48.893Z,9240.00
2018-09-04T10:13:48.920Z,9256.00
2018-09-04T10:14:48.947Z,9256.00
2018-09-04T10:15:48.971Z,9256.00
2018-09-04T10:16:48.998Z,9284.00
2018-09-04T10:17:49.023Z,9324.00
2018-09-04T10:18:49.048Z,9384.00
2018-09-04T10:19:49.122Z,9452.00
2018-09-04T10:20:49.102Z,9532.00
2018-09-04T10:21:49.131Z,9568.00
2018-09-04T10:22:49.156Z,9616.00
2018-09-04T10:23:49.179Z,9676.00
2018-09-04T10:24:49.203Z,9780.00
2018-09-04T10:25:49.229Z,10032.00
2018-09-04T10:26:49.257Z,10600.00
2018-09-04T10:27:49.282Z,11264.00
2018-09-04T10:28:49.307Z,11648.00
2018-09-04T10:29:49.333Z,18944.00
2018-09-04T10:30:49.361Z,33600.00
2018-09-04T10:31:49.386Z,24416.00
2018-09-04T10:32:49.411Z,11628.00
2018-09-04T10:33:49.440Z,10924.00
2018-09-04T10:34:49.463Z,17792.00
2018-09-04T10:35:49.490Z,44832.00
2018-09-04T10:36:49.527Z,59648.00
2018-09-04T10:37:49.541Z,44896.00
2018-09-04T10:38:49.566Z,30880.00
2018-09-04T10:39:49.593Z,39936.00
2018-09-04T10:40:49.620Z,58720.00
2018-09-04T10:41:49.658Z,57856.00
2018-09-04T10:42:49.684Z,28576.00
2018-09-04T10:43:49.714Z,13508.00
2018-09-04T10:44:49.735Z,12904.00
2018-09-04T10:45:49.762Z,18240.00
2018-09-04T10:46:49.801Z,14236.00
2018-09-04T10:47:49.827Z,14272.00
2018-09-04T10:48:49.851Z,14316.00
2018-09-04T10:49:49.878Z,35296.00
2018-09-04T10:50:49.917Z,26688.00
2018-09-04T10:51:49.943Z,68480.00
2018-09-04T10:52:49.969Z,70592.00
2018-09-04T10:53:49.994Z,67904.00
2018-09-04T10:54:50.032Z,15520.00
2018-09-04T10:55:50.143Z,14804.00
2018-09-04T10:56:50.085Z,16008.00
2018-09-04T10:57:50.175Z,16092.00
2018-09-04T10:58:50.150Z,16044.00
2018-09-04T10:59:50.176Z,30432.00
2018-09-04T11:00:50.213Z,47552.00
2018-09-04T11:01:50.239Z,26400.00
2018-09-04T11:02:50.269Z,71200.00
2018-09-04T11:03:50.306Z,72416.00
2018-09-04T11:04:50.335Z,73824.00
2018-09-04T11:05:50.367Z,72576.00
2018-09-04T11:06:50.410Z,70624.00
2018-09-04T11:07:50.423Z,71200.00
2018-09-04T11:08:50.458Z,72256.00
2018-09-04T11:09:50.587Z,71968.00
2018-09-04T11:10:50.529Z,69376.00
2018-09-04T11:11:50.549Z,67616.00
2018-09-04T11:12:50.591Z,68864.00
2018-09-04T11:13:50.627Z,60896.00
2018-09-04T11:14:50.652Z,60032.00
2018-09-04T11:15:50.691Z,67552.00
2018-09-04T11:16:50.728Z,64544.00
2018-09-04T11:17:50.755Z,54176.00
2018-09-04T11:18:50.798Z,41056.00
2018-09-04T11:19:50.845Z,28800.00
2018-09-04T11:20:50.871Z,20608.00
2018-09-04T11:21:50.909Z,18016.00
2018-09-04T11:22:50.934Z,17132.00
2018-09-04T11:23:51.006Z,16108.00
2018-09-04T11:24:51.011Z,16272.00
2018-09-04T11:25:51.051Z,21824.00
2018-09-04T11:26:51.081Z,40960.00
2018-09-04T11:27:51.130Z,59936.00
2018-09-04T11:28:51.141Z,64320.00
2018-09-04T11:29:51.180Z,66112.00
2018-09-04T11:30:51.217Z,63168.00
2018-09-04T11:31:51.244Z,65088.00
2018-09-04T11:32:51.282Z,44992.00
2018-09-04T11:33:51.320Z,9784.00
2018-09-04T11:34:51.346Z,8540.00
2018-09-04T11:35:51.386Z,8308.00
2018-09-04T11:36:51.414Z,8660.00
2018-09-04T11:37:51.449Z,9216.00
2018-09-04T11:38:51.488Z,10016.00
2018-09-04T11:39:51.514Z,12768.00
2018-09-04T11:40:51.555Z,64000.00
2018-09-04T11:41:51.579Z,65056.00
2018-09-04T11:42:51.616Z,66400.00
2018-09-04T11:43:51.642Z,66240.00
2018-09-04T11:44:51.683Z,67712.00
2018-09-04T11:45:51.709Z,67392.00
2018-09-04T11:46:51.786Z,69184.00
2018-09-04T11:47:51.782Z,70336.00
2018-09-04T11:48:51.808Z,69088.00
2018-09-04T11:49:51.848Z,68960.00
2018-09-04T11:50:51.886Z,68832.00
2018-09-04T11:51:51.913Z,69312.00
2018-09-04T11:52:51.951Z,68896.00
2018-09-04T11:53:51.988Z,67392.00
2018-09-04T11:54:52.029Z,65792.00
2018-09-04T11:55:52.058Z,67968.00
2018-09-04T11:56:52.093Z,65984.00
2018-09-04T11:57:52.132Z,64320.00
2018-09-04T11:58:52.170Z,65824.00
2018-09-04T11:59:52.208Z,66016.00
2018-09-04T12:00:52.234Z,66368.00
2018-09-04T12:01:52.273Z,65600.00
2018-09-04T12:02:52.311Z,65696.00
2018-09-04T12:03:52.362Z,65120.00
2018-09-04T12:04:52.388Z,61664.00
2018-09-04T12:05:52.450Z,62560.00
2018-09-04T12:06:52.470Z,53376.00
2018-09-04T12:07:52.502Z,35552.00
2018-09-04T12:08:52.545Z,31744.00
2018-09-04T12:09:52.581Z,26272.00
2018-09-04T12:10:52.608Z,17952.00
2018-09-04T12:11:52.645Z,15192.00
2018-09-04T12:12:52.700Z,14484.00
2018-09-04T12:13:52.721Z,14636.00
2018-09-04T12:14:52.759Z,14476.00
2018-09-04T12:15:52.798Z,14668.00
2018-09-04T12:16:52.825Z,15028.00
2018-09-04T12:17:52.867Z,15008.00
2018-09-04T12:18:52.958Z,14972.00
2018-09-04T12:19:52.938Z,15252.00
2018-09-04T12:20:53.054Z,15092.00
2018-09-04T12:21:53.004Z,14808.00
2018-09-04T12:22:53.043Z,14636.00
2018-09-04T12:23:53.067Z,14808.00